Nowshera Weather



Nowshera's Current Weather

Temprature 25.38o clear sky

clear sky

Rain: 0 %

Min Temprature25.38o
Max Temprature25.38o
Humidity33
Wind Speed3.81 m/h
Sun Rise05:05:23
Sun Set19:12:34
Current Time: 24-May-2022 07:41:46
Lat/Lon: 34.0058, 71.9977




Nowshera's Geo Location



Nowshera's Weather Forecast

Time Overall Temp Min Temp Max Temp Humidity Wind Speed Rain
24-May-2022 (Tue)
08:00:00 clear sky 25.380 25.380 27.350 33 3.81 m/h 0 %
11:00:00 clear sky 27.360 27.360 31.320 30 3.48 m/h 0 %
14:00:00 clear sky 31.250 31.250 34.180 23 1.84 m/h 0 %
17:00:00 clear sky 34.940 34.940 34.940 15 0.93 m/h 0 %
20:00:00 clear sky 31.840 31.840 31.840 19 2.64 m/h 0 %
23:00:00 clear sky 29.970 29.970 29.970 24 2.2 m/h 0 %
25-May-2022 (Wed)
02:00:00 clear sky 27.710 27.710 27.710 27 1.76 m/h 0 %
05:00:00 clear sky 25.620 25.620 25.620 32 2.28 m/h 0 %
08:00:00 clear sky 29.810 29.810 29.810 25 0.96 m/h 0 %
11:00:00 clear sky 34.920 34.920 34.920 18 0.83 m/h 0 %
14:00:00 clear sky 38.130 38.130 38.130 14 2.06 m/h 0 %
17:00:00 clear sky 39.200 39.200 39.200 12 2.55 m/h 0 %
20:00:00 clear sky 34.980 34.980 34.980 16 2.89 m/h 0 %
23:00:00 clear sky 32.850 32.850 32.850 18 1.36 m/h 0 %
26-May-2022 (Thu)
02:00:00 clear sky 30.100 30.100 30.100 22 1.46 m/h 0 %
05:00:00 clear sky 28.080 28.080 28.080 25 1.71 m/h 0 %
08:00:00 clear sky 32.660 32.660 32.660 19 1.31 m/h 0 %
11:00:00 clear sky 38.010 38.010 38.010 14 0.22 m/h 0 %
14:00:00 clear sky 41.880 41.880 41.880 7 2.81 m/h 0 %
17:00:00 clear sky 42.860 42.860 42.860 6 2.03 m/h 0 %
20:00:00 clear sky 37.510 37.510 37.510 10 3.24 m/h 0 %
23:00:00 clear sky 35.470 35.470 35.470 11 2.66 m/h 0 %
27-May-2022 (Fri)
02:00:00 clear sky 31.200 31.200 31.200 19 2.71 m/h 0 %
05:00:00 clear sky 29.450 29.450 29.450 23 0.33 m/h 0 %
08:00:00 clear sky 34.190 34.190 34.190 17 0.44 m/h 0 %
11:00:00 clear sky 39.970 39.970 39.970 11 0.69 m/h 0 %
14:00:00 clear sky 43.800 43.800 43.800 9 2.5 m/h 0 %
17:00:00 clear sky 44.360 44.360 44.360 8 0.58 m/h 0 %
20:00:00 few clouds 39.670 39.670 39.670 11 1.52 m/h 0 %
23:00:00 scattered clouds 36.760 36.760 36.760 13 0.86 m/h 0 %
28-May-2022 (Sat)
02:00:00 scattered clouds 34.100 34.100 34.100 15 6.5 m/h 0 %
05:00:00 scattered clouds 31.600 31.600 31.600 20 8.15 m/h 0 %
08:00:00 few clouds 35.030 35.030 35.030 16 9.36 m/h 0 %
11:00:00 clear sky 40.320 40.320 40.320 13 7.23 m/h 0 %
14:00:00 clear sky 43.790 43.790 43.790 10 3.66 m/h 0 %
17:00:00 few clouds 42.870 42.870 42.870 9 8.95 m/h 0 %
20:00:00 scattered clouds 36.540 36.540 36.540 19 5.39 m/h 0 %
23:00:00 scattered clouds 33.360 33.360 33.360 25 1.9 m/h 0 %
29-May-2022 (Sun)
02:00:00 broken clouds 32.380 32.380 32.380 25 0.81 m/h 0 %
05:00:00 overcast clouds 29.820 29.820 29.820 29 2.58 m/h 0 %

Famous Cities (61)